createdAt,value
2023-05-06T00:02:25.835Z,9.90
2023-05-06T00:07:27.724Z,8.45
2023-05-06T00:12:29.549Z,8.45
2023-05-06T00:17:31.431Z,10.20
2023-05-06T00:22:33.761Z,10.38
2023-05-06T00:27:35.528Z,8.18
2023-05-06T00:32:37.731Z,10.68
2023-05-06T00:37:39.584Z,10.65
2023-05-06T00:42:41.476Z,10.93
2023-05-06T00:47:43.448Z,10.73
2023-05-06T00:52:46.141Z,10.13
2023-05-06T00:57:50.412Z,9.30
2023-05-06T01:02:52.466Z,10.10
2023-05-06T01:08:06.693Z,9.23
2023-05-06T01:13:30.403Z,9.57
2023-05-06T01:18:33.124Z,9.18
2023-05-06T01:23:58.061Z,10.75
2023-05-06T01:29:02.408Z,11.15
2023-05-06T01:34:13.889Z,9.35
2023-05-06T01:39:20.403Z,10.55
2023-05-06T01:44:23.305Z,11.27
2023-05-06T01:49:26.424Z,10.63
2023-05-06T01:54:28.256Z,11.35
2023-05-06T01:59:30.077Z,10.13
2023-05-06T02:04:32.418Z,10.48
2023-05-06T02:09:34.750Z,11.35
2023-05-06T02:14:38.185Z,10.80
2023-05-06T02:19:40.969Z,10.90
2023-05-06T02:24:43.121Z,12.95
2023-05-06T02:29:45.093Z,12.30
2023-05-06T02:34:46.895Z,13.27
2023-05-06T02:39:48.666Z,12.35
2023-05-06T02:44:50.488Z,11.60
2023-05-06T02:49:52.287Z,11.18
2023-05-06T02:54:54.039Z,13.05
2023-05-06T02:59:55.995Z,12.95
2023-05-06T03:04:57.873Z,14.00
2023-05-06T03:09:59.752Z,14.45
2023-05-06T03:15:01.699Z,13.75
2023-05-06T03:20:05.561Z,12.40
2023-05-06T03:25:08.456Z,12.85
2023-05-06T03:30:13.211Z,13.75
2023-05-06T03:35:15.849Z,14.68
2023-05-06T03:40:20.988Z,13.93
2023-05-06T03:45:23.119Z,13.30
2023-05-06T03:50:25.458Z,12.75
2023-05-06T03:55:28.774Z,14.63
2023-05-06T04:00:31.694Z,16.92
2023-05-06T04:05:33.668Z,14.02
2023-05-06T04:10:40.699Z,14.65
2023-05-06T04:15:50.428Z,12.35
2023-05-06T04:20:56.726Z,15.30
2023-05-06T04:26:00.029Z,15.30
2023-05-06T04:31:04.950Z,15.52
2023-05-06T04:36:26.101Z,17.85
2023-05-06T04:41:42.350Z,17.38
2023-05-06T04:46:47.208Z,16.08
2023-05-06T04:51:50.309Z,15.73
2023-05-06T04:56:52.485Z,16.33
2023-05-06T05:01:55.482Z,13.70
2023-05-06T05:06:58.591Z,16.15
2023-05-06T05:12:02.504Z,14.65
2023-05-06T05:17:07.849Z,14.75
2023-05-06T05:22:11.374Z,15.35
2023-05-06T05:27:14.182Z,13.13
2023-05-06T05:32:16.615Z,13.77
2023-05-06T05:37:18.743Z,13.25
2023-05-06T05:42:20.645Z,11.27
2023-05-06T05:47:23.338Z,12.65
2023-05-06T05:52:25.894Z,17.35
2023-05-06T05:57:27.821Z,14.48
2023-05-06T06:02:29.755Z,13.43
2023-05-06T06:07:31.981Z,12.70
2023-05-06T06:12:33.860Z,15.50
2023-05-06T06:17:36.976Z,13.32
2023-05-06T06:22:41.763Z,13.45
2023-05-06T06:27:43.613Z,14.75
2023-05-06T06:32:51.747Z,13.95
2023-05-06T06:37:54.286Z,13.20
2023-05-06T06:42:56.166Z,10.25
2023-05-06T06:48:27.237Z,10.35
2023-05-06T06:53:29.044Z,9.25
2023-05-06T06:58:32.830Z,10.02
2023-05-06T07:03:34.600Z,8.27
2023-05-06T07:08:36.513Z,11.07
2023-05-06T07:13:38.293Z,8.07
2023-05-06T07:18:40.026Z,7.80
2023-05-06T07:23:41.959Z,7.43
2023-05-06T07:28:43.780Z,8.93
2023-05-06T07:33:45.611Z,8.38
2023-05-06T07:38:47.356Z,7.88
2023-05-06T07:43:49.157Z,7.90
2023-05-06T07:48:51.151Z,7.38
2023-05-06T07:53:53.018Z,8.15
2023-05-06T07:58:54.807Z,8.20
2023-05-06T08:03:56.751Z,7.20
2023-05-06T08:08:58.931Z,7.30
2023-05-06T08:14:00.691Z,6.97
2023-05-06T08:19:02.474Z,8.05
2023-05-06T08:24:04.426Z,8.40
2023-05-06T08:29:07.204Z,6.68
2023-05-06T08:34:08.982Z,7.70
2023-05-06T08:39:10.802Z,6.95
2023-05-06T08:44:17.595Z,6.40
2023-05-06T08:49:19.617Z,6.82
2023-05-06T08:54:25.220Z,6.03
2023-05-06T08:59:30.992Z,7.10
2023-05-06T09:04:33.915Z,5.13
2023-05-06T09:09:35.990Z,5.38
2023-05-06T09:14:37.822Z,6.20
2023-05-06T09:19:40.168Z,5.65
2023-05-06T09:24:42.223Z,6.88
2023-05-06T09:30:08.844Z,5.82
2023-05-06T09:35:11.831Z,7.25
2023-05-06T09:40:14.302Z,7.78
2023-05-06T09:45:16.933Z,5.75
2023-05-06T09:50:20.691Z,6.68
2023-05-06T09:55:26.544Z,6.38
2023-05-06T10:00:30.296Z,6.35
2023-05-06T10:05:34.387Z,6.18
2023-05-06T10:10:37.617Z,4.75
2023-05-06T10:15:39.926Z,5.88
2023-05-06T10:20:43.465Z,6.18
2023-05-06T10:25:47.832Z,5.63
2023-05-06T10:30:51.666Z,6.18
2023-05-06T10:36:07.474Z,4.80
2023-05-06T10:41:10.350Z,5.22
2023-05-06T10:46:18.569Z,5.10
2023-05-06T10:51:20.378Z,3.63
2023-05-06T10:56:22.187Z,4.22
2023-05-06T11:01:28.240Z,3.15
2023-05-06T11:06:42.664Z,2.35
2023-05-06T11:12:01.847Z,2.20
2023-05-06T11:17:07.458Z,2.00
2023-05-06T11:22:09.220Z,3.97
2023-05-06T11:27:11.222Z,3.00
2023-05-06T11:32:25.214Z,2.45
2023-05-06T11:37:28.793Z,2.20
2023-05-06T11:42:30.609Z,1.83
2023-05-06T11:47:32.429Z,2.40
2023-05-06T11:52:35.797Z,1.90
2023-05-06T11:57:44.603Z,2.13
2023-05-06T12:02:46.573Z,2.17
2023-05-06T12:07:48.602Z,2.15
2023-05-06T12:12:50.521Z,2.03
2023-05-06T12:17:52.568Z,2.20
2023-05-06T12:23:16.502Z,2.00
2023-05-06T12:28:20.971Z,1.70
2023-05-06T12:33:23.674Z,1.70
2023-05-06T12:38:25.476Z,2.03
2023-05-06T12:43:31.512Z,1.50
2023-05-06T12:48:33.553Z,1.90
2023-05-06T12:53:35.906Z,1.52
2023-05-06T12:58:38.552Z,1.40
2023-05-06T13:03:41.306Z,1.20
2023-05-06T13:08:43.824Z,1.40
2023-05-06T13:13:45.624Z,1.50
2023-05-06T13:18:47.434Z,1.20
2023-05-06T13:23:49.444Z,1.42
2023-05-06T13:28:51.649Z,1.38
2023-05-06T13:33:53.529Z,1.40
2023-05-06T13:38:55.907Z,1.50
2023-05-06T13:43:57.853Z,1.40
2023-05-06T13:48:59.671Z,1.73
2023-05-06T13:54:02.656Z,1.33
2023-05-06T13:59:05.275Z,1.40
2023-05-06T14:04:07.200Z,1.20
2023-05-06T14:09:10.760Z,1.77
2023-05-06T14:14:12.572Z,1.35
2023-05-06T14:19:14.293Z,1.40
2023-05-06T14:24:16.076Z,1.58
2023-05-06T14:29:17.794Z,0.95
2023-05-06T14:34:19.528Z,1.20
2023-05-06T14:39:21.286Z,1.27
2023-05-06T14:44:23.248Z,1.40
2023-05-06T14:49:24.983Z,1.20
2023-05-06T14:54:29.228Z,1.38
2023-05-06T14:59:31.073Z,1.77
2023-05-06T15:04:32.861Z,1.33
2023-05-06T15:09:34.755Z,1.40
2023-05-06T15:14:36.922Z,1.50
2023-05-06T15:19:38.947Z,1.60
2023-05-06T15:24:40.740Z,1.40
2023-05-06T15:29:42.504Z,1.40
2023-05-06T15:34:44.387Z,1.60
2023-05-06T15:39:47.998Z,1.20
2023-05-06T15:44:51.503Z,1.40
2023-05-06T15:49:55.027Z,1.80
2023-05-06T15:54:59.524Z,1.27
2023-05-06T16:00:02.192Z,1.58
2023-05-06T16:05:09.595Z,0.98
2023-05-06T16:10:11.738Z,1.38
2023-05-06T16:15:13.666Z,1.67
2023-05-06T16:20:15.450Z,1.20
2023-05-06T16:25:17.249Z,1.45
2023-05-06T16:30:19.116Z,1.63
2023-05-06T16:35:20.898Z,1.50
2023-05-06T16:40:22.818Z,1.10
2023-05-06T16:45:24.579Z,1.33
2023-05-06T16:50:26.338Z,1.30
2023-05-06T16:55:28.261Z,1.42
2023-05-06T17:00:30.353Z,1.38
2023-05-06T17:05:32.090Z,1.52
2023-05-06T17:10:33.873Z,1.80
2023-05-06T17:15:35.724Z,1.77
2023-05-06T17:20:51.692Z,3.00
2023-05-06T17:25:57.165Z,1.80
2023-05-06T17:30:58.991Z,1.60
2023-05-06T17:36:03.473Z,1.60
2023-05-06T17:41:05.533Z,1.40
2023-05-06T17:46:09.397Z,1.75
2023-05-06T17:51:11.363Z,2.00
2023-05-06T17:56:13.304Z,1.42
2023-05-06T18:01:15.603Z,1.55
2023-05-06T18:06:17.590Z,1.80
2023-05-06T18:11:19.319Z,1.63
2023-05-06T18:16:21.134Z,1.80
2023-05-06T18:21:23.117Z,1.98
2023-05-06T18:26:39.859Z,1.83
2023-05-06T18:31:46.289Z,2.15
2023-05-06T18:36:48.132Z,1.88
2023-05-06T18:41:49.885Z,1.83
2023-05-06T18:46:51.671Z,2.05
2023-05-06T18:51:57.277Z,1.70
2023-05-06T18:57:01.017Z,3.58
2023-05-06T19:02:04.136Z,2.63
2023-05-06T19:07:07.166Z,2.05
2023-05-06T19:12:08.950Z,2.13
2023-05-06T19:17:11.399Z,1.70
2023-05-06T19:22:13.713Z,2.03
2023-05-06T19:27:15.504Z,1.55
2023-05-06T19:32:17.373Z,1.85
2023-05-06T19:37:19.242Z,1.83
2023-05-06T19:42:21.030Z,2.20
2023-05-06T19:47:22.837Z,2.20
2023-05-06T19:52:27.248Z,4.18
2023-05-06T19:57:29.356Z,2.28
2023-05-06T20:02:32.699Z,2.38
2023-05-06T20:07:34.746Z,1.90
2023-05-06T20:12:36.694Z,2.30
2023-05-06T20:17:38.829Z,1.75
2023-05-06T20:22:41.158Z,1.77
2023-05-06T20:27:43.954Z,1.90
2023-05-06T20:32:46.607Z,2.50
2023-05-06T20:37:48.406Z,2.22
2023-05-06T20:42:50.446Z,2.47
2023-05-06T20:47:52.265Z,2.85
2023-05-06T20:52:54.799Z,2.65
2023-05-06T20:57:56.563Z,2.53
2023-05-06T21:02:58.595Z,2.25
2023-05-06T21:08:00.549Z,2.20
2023-05-06T21:13:02.691Z,6.35
2023-05-06T21:18:04.597Z,2.40
2023-05-06T21:23:06.468Z,2.83
2023-05-06T21:28:08.251Z,2.30
2023-05-06T21:33:11.192Z,6.00
2023-05-06T21:38:13.426Z,3.80
2023-05-06T21:43:17.788Z,3.17
2023-05-06T21:48:19.706Z,2.28
2023-05-06T21:53:21.517Z,2.30
2023-05-06T21:58:23.341Z,2.42
2023-05-06T22:03:25.257Z,2.22
2023-05-06T22:08:27.088Z,2.15
2023-05-06T22:13:29.044Z,2.20
2023-05-06T22:18:32.297Z,2.40
2023-05-06T22:23:34.296Z,2.38
2023-05-06T22:28:36.178Z,2.28
2023-05-06T22:33:37.949Z,2.22
2023-05-06T22:38:39.768Z,2.38
2023-05-06T22:43:41.479Z,2.28
2023-05-06T22:48:44.702Z,2.33
2023-05-06T22:53:46.778Z,2.75
2023-05-06T22:58:48.591Z,2.38
2023-05-06T23:03:50.504Z,2.25
2023-05-06T23:08:52.330Z,3.00
2023-05-06T23:13:54.136Z,2.63
2023-05-06T23:18:56.725Z,2.90
2023-05-06T23:23:58.530Z,2.47
2023-05-06T23:29:00.336Z,2.35
2023-05-06T23:34:02.310Z,2.22
2023-05-06T23:39:04.203Z,2.42
2023-05-06T23:44:06.338Z,2.25
2023-05-06T23:49:08.195Z,2.20
2023-05-06T23:54:10.064Z,2.25
2023-05-06T23:59:11.783Z,2.35
